Time;durP1;ratioP1;P1;durP2;ratioP2;P2;SDS_P1;SDS_P2;PMS_P1;PMS_P2;Temp;Humidity;BMP_temperature;BMP_pressure;BME280_temperature;BME280_humidity;BME280_pressure;Samples;Min_cycle;Max_cycle;Signal;HPM_P1;HPM_P2
2021/08/20 00:02:17;;;;;;;5.50;4.90;;;;;;;20.11;56.94;94876.16;5075195;28;20450;-79
2021/08/20 00:04:44;;;;;;;5.83;5.10;;;;;;;20.09;56.93;94873.69;5075286;28;20441;-78
2021/08/20 00:07:11;;;;;;;6.20;4.30;;;;;;;20.13;56.46;94883.97;5075585;28;20451;-79
2021/08/20 00:09:39;;;;;;;5.43;4.77;;;;;;;20.15;56.59;94877.41;5075570;28;20450;-79
2021/08/20 00:12:08;;;;;;;5.33;4.63;;;;;;;20.14;56.82;94878.44;5056291;28;20471;-79
2021/08/20 00:14:35;;;;;;;4.90;4.50;;;;;;;20.16;57.15;94872.91;5040161;28;21004;-79
2021/08/20 00:17:02;;;;;;;6.13;4.37;;;;;;;20.21;56.89;94873.16;5039973;28;20480;-79
2021/08/20 00:19:29;;;;;;;5.50;4.73;;;;;;;20.28;56.98;94876.75;5074901;28;20447;-79
2021/08/20 00:21:55;;;;;;;6.70;4.90;;;;;;;20.31;56.67;94871.88;5074883;28;20959;-79
2021/08/20 00:24:22;;;;;;;6.57;5.30;;;;;;;20.35;57.17;94872.31;5074980;28;20528;-79
2021/08/20 00:26:51;;;;;;;5.47;4.93;;;;;;;20.38;57.02;94878.06;5074833;28;20440;-79
2021/08/20 00:29:18;;;;;;;6.40;5.00;;;;;;;20.42;56.92;94870.56;5074864;28;20462;-79
2021/08/20 00:31:44;;;;;;;5.37;4.90;;;;;;;20.38;57.02;94862.09;5074713;28;20451;-79
2021/08/20 00:34:11;;;;;;;5.47;4.83;;;;;;;20.45;57.25;94872.00;5074716;28;20447;-79
2021/08/20 00:36:38;;;;;;;5.90;4.87;;;;;;;20.46;57.55;94869.16;5074901;28;20479;-79
2021/08/20 00:39:05;;;;;;;4.07;3.77;;;;;;;20.47;57.66;94869.97;5074879;28;20441;-79
2021/08/20 00:41:33;;;;;;;5.27;4.70;;;;;;;20.47;57.88;94873.47;5075012;28;20445;-79
2021/08/20 00:44:02;;;;;;;5.20;4.70;;;;;;;20.46;57.86;94878.97;5074687;28;20523;-79
2021/08/20 00:46:29;;;;;;;5.90;4.67;;;;;;;20.42;58.29;94875.88;5073581;28;20520;-79
2021/08/20 00:48:56;;;;;;;6.07;4.93;;;;;;;20.39;58.11;94878.91;5074557;28;20441;-79
2021/08/20 00:51:25;;;;;;;5.00;4.60;;;;;;;20.40;58.43;94876.06;5074156;28;20936;-79
2021/08/20 00:53:53;;;;;;;6.03;4.87;;;;;;;20.32;58.52;94873.50;5074252;28;20437;-79
2021/08/20 00:56:20;;;;;;;4.93;4.40;;;;;;;20.21;58.47;94863.34;5074046;28;20476;-79
2021/08/20 00:58:48;;;;;;;5.80;5.17;;;;;;;20.20;58.83;94879.50;5073907;28;20537;-79
2021/08/20 01:01:17;;;;;;;7.30;4.80;;;;;;;20.13;59.05;94884.78;5039223;28;20467;-79
2021/08/20 01:03:44;;;;;;;5.63;4.90;;;;;;;20.08;59.17;94877.34;5074327;28;20496;-79
2021/08/20 01:06:11;;;;;;;6.93;5.50;;;;;;;20.06;59.33;94879.38;5073732;28;20454;-80
2021/08/20 01:08:39;;;;;;;6.10;4.20;;;;;;;19.99;59.56;94881.16;5074147;28;20443;-79
2021/08/20 01:11:08;;;;;;;4.73;4.33;;;;;;;19.93;59.90;94873.91;5074077;28;20469;-79
2021/08/20 01:13:38;;;;;;;5.50;5.00;;;;;;;19.92;60.26;94874.09;5073803;28;20536;-79
2021/08/20 01:16:06;;;;;;;6.27;4.60;;;;;;;19.82;60.66;94876.22;5073773;28;20448;-79
2021/08/20 01:18:36;;;;;;;6.30;5.60;;;;;;;19.77;60.93;94874.13;5073899;28;20923;-79
2021/08/20 01:21:08;;;;;;;6.20;5.40;;;;;;;19.75;61.06;94870.84;5073861;28;20449;-79
2021/08/20 01:23:36;;;;;;;7.20;5.17;;;;;;;19.71;61.24;94875.72;5073685;28;20474;-79
2021/08/20 01:26:06;;;;;;;6.17;5.07;;;;;;;19.68;61.67;94876.09;5073467;28;20448;-79
2021/08/20 01:28:33;;;;;;;8.33;4.83;;;;;;;19.67;61.63;94877.09;5073415;28;21005;-79
2021/08/20 01:31:01;;;;;;;5.50;4.97;;;;;;;19.66;61.72;94871.94;5073513;28;20443;-79
2021/08/20 01:33:28;;;;;;;5.70;5.20;;;;;;;19.60;62.53;94870.84;5073448;28;20451;-79
2021/08/20 01:35:55;;;;;;;8.00;5.67;;;;;;;19.57;62.50;94870.41;5038381;28;20450;-79
2021/08/20 01:38:23;;;;;;;10.93;5.33;;;;;;;19.56;62.78;94872.22;5073436;28;20482;-79
2021/08/20 01:40:50;;;;;;;6.13;4.53;;;;;;;19.53;62.88;94874.41;5073624;28;20450;-79
2021/08/20 01:43:19;;;;;;;8.03;5.90;;;;;;;19.48;62.83;94872.31;5073516;28;20450;-79
2021/08/20 01:45:46;;;;;;;7.93;5.30;;;;;;;19.40;63.20;94870.56;5073161;28;20948;-79
2021/08/20 01:48:13;;;;;;;10.37;5.90;;;;;;;19.40;63.49;94870.56;5073322;28;20453;-79
2021/08/20 01:50:41;;;;;;;5.90;5.30;;;;;;;19.37;63.63;94868.28;5073361;28;20443;-79
2021/08/20 01:53:09;;;;;;;5.53;4.80;;;;;;;19.34;63.87;94873.13;5073529;28;20445;-79
2021/08/20 01:55:36;;;;;;;6.37;5.37;;;;;;;19.35;64.06;94880.09;5073042;28;20822;-79
2021/08/20 01:58:04;;;;;;;6.70;5.43;;;;;;;19.29;64.61;94875.50;5072967;28;20576;-79
2021/08/20 02:00:32;;;;;;;5.10;4.60;;;;;;;19.29;64.85;94878.19;5072866;28;20439;-79
2021/08/20 02:02:59;;;;;;;5.27;4.77;;;;;;;19.19;65.29;94878.47;5073589;28;20448;-79
2021/08/20 02:05:26;;;;;;;5.10;4.60;;;;;;;19.15;65.72;94874.53;5054525;28;20447;-79
2021/08/20 02:07:53;;;;;;;6.90;5.90;;;;;;;19.14;65.74;94878.19;5073416;28;20455;-79
2021/08/20 02:10:20;;;;;;;7.90;5.80;;;;;;;19.13;65.95;94874.72;5073380;28;20450;-78
2021/08/20 02:12:47;;;;;;;5.97;5.37;;;;;;;19.16;66.15;94871.69;5073455;28;20479;-80
2021/08/20 02:15:14;;;;;;;5.17;4.67;;;;;;;19.16;66.34;94874.34;5073180;28;20474;-79
2021/08/20 02:17:43;;;;;;;5.83;5.23;;;;;;;19.15;66.56;94878.00;5073729;28;20515;-79
2021/08/20 02:20:10;;;;;;;6.00;5.27;;;;;;;19.12;66.46;94870.41;5073116;28;21014;-79
2021/08/20 02:22:37;;;;;;;5.47;4.90;;;;;;;19.10;66.99;94883.06;5073392;28;20449;-79
2021/08/20 02:25:06;;;;;;;11.53;6.70;;;;;;;19.07;67.02;94875.41;5073050;28;20563;-79
2021/08/20 02:27:32;;;;;;;7.00;5.77;;;;;;;18.98;67.79;94878.34;5073075;28;20454;-79
2021/08/20 02:29:59;;;;;;;6.33;5.33;;;;;;;19.00;68.01;94879.81;5073004;28;20920;-79
2021/08/20 02:32:26;;;;;;;9.40;6.30;;;;;;;19.03;68.00;94876.78;5073127;28;20442;-79
2021/08/20 02:34:55;;;;;;;6.80;5.93;;;;;;;19.05;67.88;94880.09;5072792;28;20434;-80
2021/08/20 02:37:22;;;;;;;8.60;5.77;;;;;;;19.09;67.88;94881.41;5073144;28;20251;-80
2021/08/20 02:39:48;;;;;;;6.03;5.47;;;;;;;19.08;67.97;94878.91;5073019;28;20446;-79
2021/08/20 02:42:15;;;;;;;10.77;5.37;;;;;;;19.06;68.02;94878.25;5073243;28;20446;-80
2021/08/20 02:44:42;;;;;;;8.67;6.20;;;;;;;19.05;68.21;94880.09;5072741;28;20448;-79
2021/08/20 02:47:09;;;;;;;9.60;5.50;;;;;;;19.05;68.29;94887.25;5072941;28;20528;-79
2021/08/20 02:49:36;;;;;;;7.37;5.40;;;;;;;19.04;68.45;94885.59;5072973;28;20454;-79
2021/08/20 02:52:05;;;;;;;8.13;5.57;;;;;;;19.03;68.36;94883.94;5072744;28;20454;-80
2021/08/20 02:54:32;;;;;;;8.73;6.73;;;;;;;19.02;68.54;94877.78;5053917;28;20447;-79
2021/08/20 02:56:59;;;;;;;6.03;5.20;;;;;;;18.99;68.44;94880.00;5072981;28;20790;-79
2021/08/20 02:59:26;;;;;;;6.30;5.30;;;;;;;18.95;68.75;94884.03;5053765;28;20438;-80
2021/08/20 03:01:53;;;;;;;8.23;5.40;;;;;;;18.90;69.01;94876.59;5072680;28;20439;-79
2021/08/20 03:04:20;;;;;;;6.30;5.70;;;;;;;18.84;69.37;94875.50;5072481;28;20450;-79
2021/08/20 03:06:47;;;;;;;12.37;5.43;;;;;;;18.83;69.62;94875.69;5072889;28;20448;-80
2021/08/20 03:09:17;;;;;;;9.23;5.30;;;;;;;18.82;69.67;94882.00;5039666;28;20468;-79
2021/08/20 03:11:44;;;;;;;7.07;5.80;;;;;;;18.82;69.92;94882.00;5076041;28;20473;-79
2021/08/20 03:14:11;;;;;;;7.10;6.27;;;;;;;18.73;70.06;94878.56;5076739;28;20458;-79
2021/08/20 03:16:38;;;;;;;8.03;6.27;;;;;;;18.76;70.07;94882.69;5076236;28;20964;-79
2021/08/20 03:19:05;;;;;;;9.07;6.20;;;;;;;18.77;70.12;94879.03;5075943;28;20484;-80
2021/08/20 03:21:32;;;;;;;6.93;6.20;;;;;;;18.84;69.81;94877.34;5076329;28;20446;-79
2021/08/20 03:23:59;;;;;;;6.67;6.00;;;;;;;18.82;70.28;94884.66;5076173;28;20477;-80
2021/08/20 03:26:28;;;;;;;7.03;6.37;;;;;;;18.78;70.17;94889.50;5076051;28;20814;-80
2021/08/20 03:28:55;;;;;;;6.30;5.70;;;;;;;18.75;70.20;94889.84;5076004;28;20538;-79
2021/08/20 03:31:21;;;;;;;5.63;5.13;;;;;;;18.76;70.46;94894.16;5075945;28;20467;-79
2021/08/20 03:33:48;;;;;;;7.80;6.03;;;;;;;18.85;70.31;94889.63;5075881;28;20445;-79
2021/08/20 03:36:15;;;;;;;7.67;5.77;;;;;;;18.84;70.01;94901.25;5057393;28;20442;-80
2021/08/20 03:38:42;;;;;;;8.20;6.43;;;;;;;18.90;69.62;94897.88;5075683;28;21000;-79
2021/08/20 03:41:09;;;;;;;6.70;6.00;;;;;;;18.93;69.72;94899.34;5075602;28;20444;-79
2021/08/20 03:43:38;;;;;;;6.00;5.40;;;;;;;18.95;69.90;94903.47;5057038;28;20446;-80
2021/08/20 03:46:08;;;;;;;7.37;5.73;;;;;;;18.96;69.60;94913.09;5075706;28;20454;-79
2021/08/20 03:48:36;;;;;;;6.80;6.10;;;;;;;18.79;70.45;94916.91;5075751;28;20873;-80
2021/08/20 03:51:03;;;;;;;7.40;6.70;;;;;;;18.47;71.68;94915.31;5075628;28;20457;-80
2021/08/20 03:53:30;;;;;;;9.70;6.53;;;;;;;18.47;71.48;94916.13;5076103;28;20446;-79
2021/08/20 03:55:57;;;;;;;10.47;6.83;;;;;;;18.54;71.63;94911.78;5075941;28;20455;-79
2021/08/20 03:58:24;;;;;;;7.40;5.83;;;;;;;18.58;71.64;94914.91;5056699;28;20575;-80
2021/08/20 04:00:53;;;;;;;9.93;6.83;;;;;;;18.65;71.49;94926.50;5075433;28;20451;-80
2021/08/20 04:03:20;;;;;;;7.43;5.20;;;;;;;18.71;71.35;94924.97;5075717;28;20452;-79
2021/08/20 04:05:47;;;;;;;7.37;6.67;;;;;;;18.78;70.85;94931.19;5075583;28;20438;-77
2021/08/20 04:08:14;;;;;;;6.97;6.27;;;;;;;18.78;70.96;94928.53;5075224;28;20446;-79
2021/08/20 04:10:42;;;;;;;7.90;5.87;;;;;;;18.80;70.81;94919.41;5075809;28;20468;-85
2021/08/20 04:13:09;;;;;;;7.93;7.10;;;;;;;18.97;71.21;94913.94;5075528;28;20509;-84
2021/08/20 04:15:36;;;;;;;7.90;5.73;;;;;;;19.28;69.80;94922.59;5075296;28;20430;-84
2021/08/20 04:21:26;;;;;;;7.53;5.80;;;;;;;19.89;67.94;94917.06;5074488;28;20478;-78
2021/08/20 04:23:53;;;;;;;8.20;6.20;;;;;;;20.43;67.11;94925.50;5074665;28;20449;-78
2021/08/20 04:26:21;;;;;;;8.67;6.63;;;;;;;21.04;63.36;94915.19;5074661;28;20448;-79
2021/08/20 04:28:49;;;;;;;11.13;6.00;;;;;;;21.84;61.48;94919.19;5074576;28;20452;-78
2021/08/20 04:31:16;;;;;;;6.07;5.10;;;;;;;22.67;58.19;94923.41;5074576;28;20448;-78
2021/08/20 04:33:43;;;;;;;6.93;5.70;;;;;;;23.29;56.73;94924.88;5074465;28;20990;-78
2021/08/20 04:36:10;;;;;;;7.00;5.40;;;;;;;23.81;55.54;94925.84;5074412;28;20448;-78
2021/08/20 04:38:40;;;;;;;8.10;6.00;;;;;;;24.27;52.86;94928.34;5074557;28;20484;-78
2021/08/20 04:41:07;;;;;;;6.70;6.00;;;;;;;24.76;52.06;94926.06;5074591;28;20452;-78
2021/08/20 04:43:36;;;;;;;8.40;5.60;;;;;;;25.14;49.95;94932.19;5055504;28;20969;-78
2021/08/20 04:46:03;;;;;;;6.73;4.87;;;;;;;25.28;49.06;94939.13;5074340;28;20450;-78
2021/08/20 04:48:30;;;;;;;8.40;5.23;;;;;;;25.36;48.64;94939.88;5074238;28;20444;-77
2021/08/20 04:50:57;;;;;;;5.97;5.43;;;;;;;25.50;48.70;94952.16;5074335;28;20448;-77
2021/08/20 04:53:27;;;;;;;13.93;6.93;;;;;;;25.72;48.26;94942.66;5074380;28;20837;-78
2021/08/20 04:55:56;;;;;;;8.40;5.67;;;;;;;25.92;47.60;94940.59;5074054;28;20456;-77
2021/08/20 04:58:23;;;;;;;10.07;5.93;;;;;;;25.72;47.99;94944.50;5073943;28;20991;-79
2021/08/20 05:00:50;;;;;;;8.40;7.60;;;;;;;25.11;49.79;94942.56;5074112;28;20447;-78
2021/08/20 05:03:17;;;;;;;11.67;7.83;;;;;;;24.68;50.16;94944.06;5074018;28;20805;-79
2021/08/20 05:05:45;;;;;;;16.80;8.30;;;;;;;23.74;52.38;94949.19;5073915;28;20449;-78
2021/08/20 05:08:12;;;;;;;11.60;7.40;;;;;;;23.74;53.10;94946.50;5073853;28;20532;-78
2021/08/20 05:10:40;;;;;;;10.17;7.30;;;;;;;23.75;53.50;94951.66;5055040;28;20800;-79
2021/08/20 05:13:08;;;;;;;17.93;7.13;;;;;;;23.26;54.02;94944.06;5073771;28;20532;-79
2021/08/20 05:15:35;;;;;;;9.90;7.20;;;;;;;23.12;54.70;94947.75;5073997;28;20440;-78
2021/08/20 05:18:02;;;;;;;9.73;6.80;;;;;;;22.92;55.74;94953.09;5073554;28;20934;-77
2021/08/20 05:20:30;;;;;;;12.20;6.83;;;;;;;23.20;55.37;94955.59;5074128;28;20445;-77
2021/08/20 05:22:57;;;;;;;19.17;8.20;;;;;;;23.74;57.64;94952.69;5073798;28;20480;-76
2021/08/20 05:25:26;;;;;;;7.67;6.97;;;;;;;24.21;52.97;94955.19;5073918;28;20768;-77
2021/08/20 05:27:53;;;;;;;15.77;7.50;;;;;;;24.33;51.72;94957.06;5073475;28;20537;-79
2021/08/20 05:30:21;;;;;;;10.97;7.37;;;;;;;24.15;52.16;94953.38;5073348;28;20471;-77
2021/08/20 05:32:48;;;;;;;10.70;7.20;;;;;;;24.47;51.79;94965.84;5054253;28;20526;-79
2021/08/20 05:35:16;;;;;;;10.83;6.77;;;;;;;24.58;50.72;94959.81;5073304;28;20512;-78
2021/08/20 05:37:44;;;;;;;10.53;6.80;;;;;;;24.84;50.52;94960.69;5073150;28;20836;-76
2021/08/20 05:40:14;;;;;;;19.20;6.67;;;;;;;25.00;49.50;94957.50;5073731;28;20450;-78
2021/08/20 05:42:43;;;;;;;11.60;6.30;;;;;;;25.23;48.92;94955.06;5073187;28;20454;-77
2021/08/20 05:45:11;;;;;;;8.33;6.63;;;;;;;25.53;48.82;94959.78;5073462;28;20450;-77
2021/08/20 05:47:40;;;;;;;6.47;5.53;;;;;;;25.58;48.18;94962.63;5073021;28;20460;-77
2021/08/20 05:50:08;;;;;;;6.33;5.73;;;;;;;25.55;48.18;94961.19;5073083;28;20803;-77
2021/08/20 05:52:37;;;;;;;7.63;6.77;;;;;;;25.76;48.50;94961.88;5038280;28;20450;-78
2021/08/20 05:55:06;;;;;;;6.70;5.97;;;;;;;25.85;47.61;94958.66;5054398;28;20444;-78
2021/08/20 05:57:33;;;;;;;6.40;5.77;;;;;;;26.06;48.36;94965.47;5073004;28;20444;-79
2021/08/20 05:59:59;;;;;;;12.60;5.67;;;;;;;26.34;47.59;94959.59;5073105;28;20483;-78
2021/08/20 06:02:26;;;;;;;8.50;6.50;;;;;;;26.68;47.57;94966.19;5054107;28;20441;-78
2021/08/20 06:04:55;;;;;;;10.63;6.30;;;;;;;26.93;46.37;94963.34;5073058;28;20528;-78
2021/08/20 06:07:22;;;;;;;6.80;6.10;;;;;;;27.09;45.39;94968.09;5073188;28;20451;-78
2021/08/20 06:09:48;;;;;;;7.00;6.10;;;;;;;27.20;44.50;94966.50;5073783;28;20793;-78
2021/08/20 06:12:15;;;;;;;9.87;7.70;;;;;;;27.09;44.78;94961.91;5072454;28;20822;-78
2021/08/20 06:14:44;;;;;;;8.87;5.63;;;;;;;27.10;45.76;94969.75;5053761;28;20459;-78
2021/08/20 06:17:11;;;;;;;6.80;6.20;;;;;;;27.13;45.36;94963.88;5072677;28;20433;-78
2021/08/20 06:19:38;;;;;;;8.03;6.00;;;;;;;27.11;45.60;94966.00;5072579;28;20480;-79
2021/08/20 06:22:06;;;;;;;7.73;5.97;;;;;;;27.22;45.59;94955.50;5072507;28;20444;-79
2021/08/20 06:24:33;;;;;;;8.23;6.13;;;;;;;27.30;46.21;94947.06;5072985;28;20448;-78
2021/08/20 06:27:00;;;;;;;9.10;6.37;;;;;;;27.53;45.63;94946.28;5073032;28;20487;-79
2021/08/20 06:29:27;;;;;;;7.13;5.80;;;;;;;27.59;43.92;94945.34;5072567;28;20444;-78
2021/08/20 06:31:54;;;;;;;8.30;6.77;;;;;;;27.58;44.26;94949.09;5072909;28;21047;-78
2021/08/20 06:34:21;;;;;;;7.10;6.40;;;;;;;26.75;46.41;94948.06;5072673;28;20457;-78
2021/08/20 06:36:48;;;;;;;7.70;5.53;;;;;;;26.61;46.92;94943.09;5072523;28;20440;-78
2021/08/20 06:39:16;;;;;;;6.43;5.60;;;;;;;26.77;46.86;94950.53;5072410;28;20488;-79
2021/08/20 06:41:43;;;;;;;5.80;5.30;;;;;;;26.98;46.66;94944.63;5072514;28;20430;-79
2021/08/20 06:44:10;;;;;;;5.70;5.27;;;;;;;26.87;47.36;94950.78;5076755;28;20443;-78
2021/08/20 06:46:37;;;;;;;7.47;6.17;;;;;;;27.17;47.11;94948.91;5057686;28;20438;-78
2021/08/20 06:49:04;;;;;;;5.77;5.17;;;;;;;27.36;46.03;94954.22;5057917;28;21493;-78
2021/08/20 06:51:31;;;;;;;18.37;13.83;;;;;;;27.62;45.74;94951.09;5076740;28;20436;-79
2021/08/20 06:53:58;;;;;;;6.33;5.70;;;;;;;27.58;44.98;94954.47;5076775;28;20443;-78
2021/08/20 06:56:27;;;;;;;6.20;5.13;;;;;;;27.27;45.67;94944.84;5076557;28;20451;-78
2021/08/20 06:58:53;;;;;;;8.20;4.93;;;;;;;27.38;45.90;94949.41;5076780;28;20480;-78
2021/08/20 07:01:20;;;;;;;6.40;5.90;;;;;;;27.60;45.77;94950.50;5076189;28;20448;-79
2021/08/20 07:03:47;;;;;;;5.53;5.03;;;;;;;27.68;44.46;94942.06;5076122;28;20509;-78
2021/08/20 07:06:21;;;;;;;6.33;5.73;;;;;;;27.94;45.62;94948.03;5076108;28;20451;-78
2021/08/20 07:08:49;;;;;;;6.47;5.80;;;;;;;27.99;45.19;94946.28;5076246;28;20528;-78
2021/08/20 07:11:16;;;;;;;5.90;5.40;;;;;;;27.66;45.46;94952.28;5076738;28;20472;-78
2021/08/20 07:13:44;;;;;;;6.30;5.80;;;;;;;27.77;44.52;94948.78;5075959;28;20466;-78
2021/08/20 07:16:11;;;;;;;9.80;8.80;;;;;;;28.07;44.88;94950.50;5076146;28;20445;-78
2021/08/20 07:18:38;;;;;;;14.00;6.13;;;;;;;28.07;43.93;94943.22;5076060;28;20483;-78
2021/08/20 07:21:06;;;;;;;6.53;5.30;;;;;;;27.96;44.05;94944.03;5057396;28;20447;-78
2021/08/20 07:23:34;;;;;;;5.40;5.00;;;;;;;27.90;44.83;94945.00;5075853;28;20810;-78
2021/08/20 07:26:01;;;;;;;5.50;5.00;;;;;;;27.59;45.42;94945.34;5075870;28;20455;-78
2021/08/20 07:28:28;;;;;;;7.53;5.90;;;;;;;27.80;45.31;94946.66;5057024;28;20809;-78
2021/08/20 07:30:57;;;;;;;6.47;5.10;;;;;;;27.59;45.19;94948.84;5076105;28;20515;-78
2021/08/20 07:33:24;;;;;;;5.47;4.97;;;;;;;27.52;46.48;94944.63;5075734;28;20516;-78
2021/08/20 07:35:51;;;;;;;10.90;4.67;;;;;;;27.37;46.21;94937.00;5075927;28;20440;-79
2021/08/20 07:38:19;;;;;;;8.03;6.20;;;;;;;27.78;45.07;94936.09;5076185;28;20527;-78
2021/08/20 07:40:46;;;;;;;5.77;5.27;;;;;;;28.11;44.31;94937.34;5075606;28;20912;-78
2021/08/20 07:43:13;;;;;;;5.00;4.60;;;;;;;28.35;44.17;94937.09;5075856;28;20524;-78
2021/08/20 07:45:40;;;;;;;5.93;5.43;;;;;;;28.42;42.80;94939.66;5075347;28;20445;-78
2021/08/20 07:48:09;;;;;;;6.70;5.13;;;;;;;28.29;43.84;94939.91;5075862;28;20908;-78
2021/08/20 07:50:36;;;;;;;6.07;5.57;;;;;;;28.40;43.87;94930.16;5075803;28;20448;-78
2021/08/20 07:53:03;;;;;;;5.63;5.00;;;;;;;28.66;43.04;94935.00;5075321;28;20447;-78
2021/08/20 07:55:30;;;;;;;5.40;4.90;;;;;;;28.60;43.11;94923.25;5074646;28;20444;-79
2021/08/20 07:57:57;;;;;;;4.73;4.33;;;;;;;28.76;41.85;94931.66;5040026;28;20524;-79
2021/08/20 08:00:28;;;;;;;5.70;5.30;;;;;;;28.71;42.20;94918.88;5075427;28;20492;-79
2021/08/20 08:02:55;;;;;;;6.10;5.50;;;;;;;28.73;41.80;94922.16;5075586;28;20523;-78
2021/08/20 08:05:25;;;;;;;5.80;5.27;;;;;;;28.77;42.03;94931.41;5075497;28;20447;-78
2021/08/20 08:07:52;;;;;;;5.90;5.27;;;;;;;28.73;41.82;94924.84;5075183;28;20459;-78
2021/08/20 08:10:20;;;;;;;6.23;4.90;;;;;;;28.52;42.70;94922.81;5074778;28;20786;-78
2021/08/20 08:12:47;;;;;;;4.87;4.47;;;;;;;28.63;41.13;94920.09;5075038;28;20449;-78
2021/08/20 08:15:14;;;;;;;6.27;5.67;;;;;;;28.40;42.53;94925.56;5075439;28;20453;-79
2021/08/20 08:17:41;;;;;;;5.37;4.97;;;;;;;28.47;43.25;94925.44;5074962;28;20844;-79
2021/08/20 08:20:11;;;;;;;5.80;4.93;;;;;;;28.34;42.22;94926.53;5074872;28;20495;-79
2021/08/20 08:22:39;;;;;;;5.83;5.33;;;;;;;27.87;42.72;94931.16;5074842;28;20449;-80
2021/08/20 08:25:07;;;;;;;7.57;5.40;;;;;;;28.36;42.61;94919.03;5074905;28;20522;-78
2021/08/20 08:27:48;;;;;;;6.70;5.53;;;;;;;28.45;42.80;94922.16;5055942;28;20851;-80
2021/08/20 08:30:15;;;;;;;4.60;4.30;;;;;;;28.65;41.91;94922.56;5074673;28;20513;-79
2021/08/20 08:32:42;;;;;;;5.70;4.93;;;;;;;28.60;41.73;94923.25;5074577;28;20447;-79
2021/08/20 08:35:10;;;;;;;5.47;5.03;;;;;;;28.75;41.26;94921.91;5074479;28;20448;-79
2021/08/20 08:37:37;;;;;;;6.50;5.20;;;;;;;28.86;40.78;94918.34;5074321;28;20443;-79
2021/08/20 08:40:08;;;;;;;5.03;4.40;;;;;;;28.92;41.60;94922.81;5074346;28;20492;-79
2021/08/20 08:42:36;;;;;;;6.10;5.33;;;;;;;29.25;41.13;94913.91;5074553;28;20471;-79
2021/08/20 08:45:03;;;;;;;11.17;5.77;;;;;;;29.21;40.17;94920.88;5074552;28;20455;-79
2021/08/20 08:47:34;;;;;;;5.30;4.87;;;;;;;29.32;41.17;94901.03;5074401;28;20445;-78
2021/08/20 08:50:04;;;;;;;5.60;5.10;;;;;;;29.39;40.74;94911.69;5074504;28;20842;-79
2021/08/20 08:52:31;;;;;;;6.57;5.93;;;;;;;29.34;40.54;94908.91;5074003;28;20458;-79
2021/08/20 08:55:02;;;;;;;6.57;5.50;;;;;;;28.84;40.49;94907.75;5074073;28;20456;-79
2021/08/20 08:57:30;;;;;;;6.53;4.97;;;;;;;29.04;40.91;94901.94;5074278;28;20444;-79
2021/08/20 08:59:57;;;;;;;6.53;5.67;;;;;;;29.14;40.57;94904.78;5073610;28;20488;-78
2021/08/20 09:02:25;;;;;;;9.30;5.57;;;;;;;29.14;40.89;94904.78;5055297;28;20764;-78
2021/08/20 09:04:57;;;;;;;5.90;5.30;;;;;;;28.98;40.26;94898.31;5074473;28;20447;-78
2021/08/20 09:07:25;;;;;;;6.80;5.80;;;;;;;28.96;40.91;94903.16;5073411;28;20450;-79
2021/08/20 09:10:17;;;;;;;9.50;5.43;;;;;;;29.06;41.51;94907.91;5074173;28;20539;-78
2021/08/20 09:12:53;;;;;;;6.87;6.13;;;;;;;29.12;41.43;94912.31;5074029;28;20459;-79
2021/08/20 09:15:21;;;;;;;6.20;5.50;;;;;;;29.29;40.41;94904.25;5074640;28;20448;-79
2021/08/20 09:17:49;;;;;;;6.13;5.63;;;;;;;29.19;40.90;94898.66;5073780;28;20979;-79
2021/08/20 09:20:21;;;;;;;6.23;5.73;;;;;;;29.10;40.55;94900.13;5073787;28;20480;-79
2021/08/20 09:22:49;;;;;;;8.33;5.20;;;;;;;28.99;40.50;94886.47;5074036;28;20445;-79
2021/08/20 09:25:33;;;;;;;6.10;5.50;;;;;;;29.22;41.22;94890.91;5073594;28;20440;-79
2021/08/20 09:28:21;;;;;;;6.73;5.57;;;;;;;28.97;41.00;94885.06;5011766;28;20454;-79
2021/08/20 09:31:07;;;;;;;7.63;6.63;;;;;;;29.12;40.60;94882.59;5011928;28;20445;-79
2021/08/20 09:33:36;;;;;;;6.97;6.27;;;;;;;28.64;41.81;94891.22;5011737;28;20582;-79
2021/08/20 09:36:05;;;;;;;8.10;7.40;;;;;;;28.32;42.10;94883.56;4962940;28;20979;-79
2021/08/20 09:38:34;;;;;;;6.30;5.80;;;;;;;28.17;42.85;94875.16;5011702;28;20429;-79
2021/08/20 09:41:03;;;;;;;6.20;5.60;;;;;;;28.48;42.19;94875.78;5011570;28;20479;-78
2021/08/20 09:43:33;;;;;;;8.17;6.80;;;;;;;28.67;42.04;94882.63;5011436;28;20447;-79
2021/08/20 09:46:07;;;;;;;6.93;6.23;;;;;;;28.58;43.42;94876.75;5011569;28;20539;-79
2021/08/20 09:49:01;;;;;;;9.63;6.67;;;;;;;28.95;42.76;94887.19;5011554;28;20526;-79
2021/08/20 09:51:50;;;;;;;7.27;6.67;;;;;;;29.21;40.96;94880.34;5011176;28;20808;-79
2021/08/20 09:54:18;;;;;;;6.83;6.20;;;;;;;29.42;41.36;94871.44;4953157;29;20453;-79
2021/08/20 09:56:46;;;;;;;9.50;5.90;;;;;;;29.62;40.67;94872.84;4952816;29;20462;-79
2021/08/20 09:59:15;;;;;;;9.47;7.60;;;;;;;29.43;40.58;94869.56;4936845;29;20492;-79
2021/08/20 10:01:44;;;;;;;11.03;6.13;;;;;;;29.01;40.84;94872.69;4953029;29;20446;-79
2021/08/20 10:04:13;;;;;;;6.97;6.27;;;;;;;28.99;40.40;94870.25;4956032;28;20509;-79
2021/08/20 10:06:42;;;;;;;7.27;6.57;;;;;;;29.22;41.48;94871.16;5030931;28;20988;-78
2021/08/20 10:09:10;;;;;;;6.97;6.33;;;;;;;29.27;41.38;94866.63;5030999;28;21038;-79
2021/08/20 10:11:40;;;;;;;8.37;7.10;;;;;;;29.03;41.33;94864.34;5030607;28;21018;-79
2021/08/20 10:14:09;;;;;;;10.40;6.37;;;;;;;29.20;41.13;94865.16;5030971;28;20554;-79
2021/08/20 10:16:38;;;;;;;7.33;6.63;;;;;;;29.27;40.77;94865.81;5030608;28;20443;-78
2021/08/20 10:19:07;;;;;;;7.03;6.53;;;;;;;28.88;41.69;94863.00;4981675;28;20508;-78
2021/08/20 10:21:36;;;;;;;7.50;6.83;;;;;;;28.80;43.07;94857.16;5030739;28;20430;-78
2021/08/20 10:24:04;;;;;;;7.50;6.80;;;;;;;28.84;42.30;94855.63;5030688;28;20442;-78
2021/08/20 10:26:32;;;;;;;8.80;7.43;;;;;;;28.85;41.27;94862.69;5030767;28;20443;-78
2021/08/20 10:29:01;;;;;;;9.77;7.70;;;;;;;28.67;41.42;94853.72;5030538;28;20446;-78
2021/08/20 10:31:29;;;;;;;8.20;7.40;;;;;;;28.84;42.35;94848.31;5055131;28;20441;-78
2021/08/20 10:33:58;;;;;;;8.63;7.83;;;;;;;29.03;42.23;94853.53;5072757;28;20452;-78
2021/08/20 10:36:40;;;;;;;13.83;7.20;;;;;;;28.96;40.74;94845.59;5073248;28;20448;-78
2021/08/20 10:39:08;;;;;;;8.40;7.57;;;;;;;29.08;40.84;94843.63;5010842;28;20973;-78
2021/08/20 10:41:35;;;;;;;12.93;7.67;;;;;;;29.21;42.71;94837.91;5010809;28;20454;-78
2021/08/20 10:44:05;;;;;;;9.67;7.87;;;;;;;29.39;42.12;94825.97;5010590;28;20522;-79
2021/08/20 10:47:08;;;;;;;8.37;7.53;;;;;;;29.60;40.71;94832.53;4962118;28;20446;-79
2021/08/20 10:49:47;;;;;;;8.17;7.37;;;;;;;29.70;40.43;94829.13;5010870;28;20471;-79
2021/08/20 10:52:33;;;;;;;8.40;7.60;;;;;;;29.74;41.05;94822.16;4962083;28;20435;-78
2021/08/20 10:55:32;;;;;;;7.43;6.83;;;;;;;29.73;40.14;94818.63;5010694;28;20526;-78
2021/08/20 10:58:12;;;;;;;7.60;7.00;;;;;;;29.76;40.16;94814.59;4952404;29;20461;-78
2021/08/20 11:00:42;;;;;;;9.82;8.52;;;;;;;29.82;40.33;94816.31;4951615;29;20551;-79
2021/08/20 11:03:10;;;;;;;8.13;6.30;;;;;;;29.81;39.24;94814.69;4952377;29;20305;-79
2021/08/20 11:05:44;;;;;;;11.90;8.67;;;;;;;29.76;39.86;94814.59;4952369;29;20830;-79
2021/08/20 11:08:41;;;;;;;10.50;9.50;;;;;;;29.82;40.96;94819.84;4952342;29;20484;-79
2021/08/20 11:11:44;;;;;;;11.90;8.60;;;;;;;29.29;40.31;94823.13;4914021;29;20487;-78
2021/08/20 11:14:44;;;;;;;8.70;7.77;;;;;;;28.81;40.72;94824.50;4914200;29;20472;-79
2021/08/20 11:17:11;;;;;;;13.43;8.27;;;;;;;28.72;41.47;94822.47;4976447;28;20448;-79
2021/08/20 11:19:55;;;;;;;9.60;8.00;;;;;;;28.80;41.96;94809.38;4990986;28;20490;-78
2021/08/20 11:22:28;;;;;;;7.83;7.13;;;;;;;28.97;40.95;94810.22;4990801;28;20447;-79
2021/08/20 11:25:16;;;;;;;9.13;8.23;;;;;;;29.12;40.96;94812.34;4990906;28;20448;-79
2021/08/20 11:27:55;;;;;;;12.23;8.17;;;;;;;29.19;40.21;94812.16;4990751;28;20452;-78
2021/08/20 11:30:22;;;;;;;12.60;7.97;;;;;;;29.37;39.93;94806.50;4993023;28;20539;-79
2021/08/20 11:32:49;;;;;;;8.27;7.50;;;;;;;29.51;39.72;94802.41;4994395;28;20444;-78
2021/08/20 11:35:28;;;;;;;11.23;8.23;;;;;;;29.75;40.76;94792.13;5003947;28;20960;-79
2021/08/20 11:37:57;;;;;;;8.27;7.47;;;;;;;29.94;39.54;94789.94;5013618;28;20447;-79
2021/08/20 11:40:24;;;;;;;11.53;8.00;;;;;;;30.01;39.02;94785.16;5013713;28;20490;-79
2021/08/20 11:43:05;;;;;;;8.73;7.93;;;;;;;30.05;38.63;94791.72;4965022;28;20447;-79
2021/08/20 11:45:32;;;;;;;8.50;7.60;;;;;;;29.97;38.59;94789.44;5013681;28;20447;-79